Paracuellos de Jarama, Spain
Current Conditions -  °F | °C
As of 4:30 PM on Saturday 25 Oct 2014 (Local Time) from LEMD Reporting Station
Clear Clear  
Wind Chill: 81°   Ceiling: Unl
Heat Index: 81°   Visibility: 6mi
Dew Point: 41°   Wind: 1mph
Humidity: 24%   Direction: 230°SW
Pressure: 30.15"   Gusts: NA
Location:  40.5°N, 3.53°W
Report Text: LEMD 251430Z 23001KT CAVOK 27/05 Q1021 NOSIG
Loading
Personal Weather Stations






























Interactive Weather Map
Tropical Storm Tracking
New forecast layout! Learn more

10-Day Weather Forecast

Advertisements
Track Severe Weather on mobile